Time;durP1;ratioP1;P1;durP2;ratioP2;P2;SDS_P1;SDS_P2;PMS_P1;PMS_P2;Temp;Humidity;BMP_temperature;BMP_pressure;BME280_temperature;BME280_humidity;BME280_pressure;Samples;Min_cycle;Max_cycle;Signal;HPM_P1;HPM_P2
2023/03/14 00:01:23;;;;;;;12.95;11.65;;;19.00;50.10;;;;;;4883013;29;20208;-82
2023/03/14 00:03:52;;;;;;;13.23;11.93;;;19.00;50.10;;;;;;4882571;29;20603;-82
2023/03/14 00:06:19;;;;;;;13.18;11.88;;;18.90;50.00;;;;;;4882071;29;20225;-82
2023/03/14 00:08:46;;;;;;;12.57;11.30;;;18.90;50.00;;;;;;4882304;29;20228;-81
2023/03/14 00:11:14;;;;;;;11.52;10.40;;;18.90;50.00;;;;;;4882620;29;20222;-81
2023/03/14 00:13:42;;;;;;;12.13;10.93;;;18.90;50.00;;;;;;4882548;29;20265;-81
2023/03/14 00:16:10;;;;;;;13.05;11.75;;;18.90;50.10;;;;;;4882382;29;20519;-81
2023/03/14 00:18:38;;;;;;;12.63;11.43;;;18.90;50.10;;;;;;4882588;29;20209;-81
2023/03/14 00:21:07;;;;;;;11.30;10.20;;;18.90;50.00;;;;;;4882520;29;20221;-81
2023/03/14 00:23:36;;;;;;;11.88;10.77;;;18.80;50.00;;;;;;4882843;29;20584;-81
2023/03/14 00:26:04;;;;;;;11.23;10.10;;;18.80;50.10;;;;;;4881804;29;20228;-81
2023/03/14 00:28:33;;;;;;;11.45;10.15;;;18.80;50.10;;;;;;4881798;29;20594;-81
2023/03/14 00:31:03;;;;;;;11.57;10.48;;;18.80;50.00;;;;;;4881523;29;20257;-81
2023/03/14 00:33:31;;;;;;;12.13;10.93;;;18.80;50.10;;;;;;4881901;29;20205;-81
2023/03/14 00:35:59;;;;;;;11.48;10.27;;;18.80;50.10;;;;;;4881761;29;20717;-81
2023/03/14 00:38:31;;;;;;;11.40;10.40;;;18.80;50.10;;;;;;4882250;29;20186;-81
2023/03/14 00:40:58;;;;;;;10.90;9.80;;;18.80;50.10;;;;;;4882413;29;20273;-81
2023/03/14 00:43:26;;;;;;;10.55;9.55;;;18.70;50.10;;;;;;4883093;29;20197;-81
2023/03/14 00:45:55;;;;;;;11.15;9.98;;;18.70;50.10;;;;;;4882050;29;20308;-81
2023/03/14 00:48:22;;;;;;;10.73;9.73;;;18.70;50.20;;;;;;4881591;29;20197;-80
2023/03/14 00:50:49;;;;;;;10.27;9.27;;;18.70;50.10;;;;;;4881266;29;20201;-80
2023/03/14 00:53:17;;;;;;;10.98;9.98;;;18.70;50.20;;;;;;4882158;29;20312;-80
2023/03/14 00:55:47;;;;;;;10.55;9.55;;;18.70;50.30;;;;;;4883141;29;20283;-80
2023/03/14 00:58:14;;;;;;;10.50;9.40;;;18.70;50.20;;;;;;4883242;29;20210;-80
2023/03/14 01:00:42;;;;;;;10.35;9.35;;;18.70;50.30;;;;;;4883403;29;20207;-80
2023/03/14 01:03:09;;;;;;;12.68;9.55;;;18.70;50.30;;;;;;4883190;29;20265;-80
2023/03/14 01:05:37;;;;;;;11.23;9.80;;;18.70;50.30;;;;;;4883074;29;20222;-80
2023/03/14 01:08:04;;;;;;;10.48;9.48;;;18.60;50.30;;;;;;4883454;29;20201;-80
2023/03/14 01:10:31;;;;;;;10.55;9.55;;;18.60;50.20;;;;;;4883058;29;20238;-80
2023/03/14 01:13:00;;;;;;;10.70;9.63;;;18.60;50.30;;;;;;4882680;29;20260;-80
2023/03/14 01:15:27;;;;;;;9.57;8.68;;;18.60;50.30;;;;;;4883653;29;20251;-81
2023/03/14 01:17:54;;;;;;;10.07;9.07;;;18.60;50.30;;;;;;4883317;29;20211;-81
2023/03/14 01:20:24;;;;;;;9.98;8.98;;;18.60;50.30;;;;;;4883055;29;20205;-82
2023/03/14 01:22:51;;;;;;;10.35;8.98;;;18.60;50.30;;;;;;4867600;29;20675;-82
2023/03/14 01:25:18;;;;;;;9.68;8.77;;;18.60;50.30;;;;;;4867104;29;20544;-81
2023/03/14 01:27:46;;;;;;;10.07;9.07;;;18.60;50.30;;;;;;4882945;29;20206;-81
2023/03/14 01:30:16;;;;;;;8.93;8.02;;;18.60;50.40;;;;;;4882455;29;20291;-82
2023/03/14 01:32:43;;;;;;;8.65;7.85;;;18.50;50.20;;;;;;4882355;29;20221;-82
2023/03/14 01:35:10;;;;;;;9.10;8.20;;;18.50;50.20;;;;;;4880720;29;20523;-82
2023/03/14 01:37:37;;;;;;;9.60;8.73;;;18.50;50.20;;;;;;4881634;29;20208;-81
2023/03/14 01:40:08;;;;;;;9.23;8.32;;;18.50;50.20;;;;;;4880580;29;20284;-81
2023/03/14 01:42:35;;;;;;;9.13;8.32;;;18.50;50.30;;;;;;4881399;29;20198;-81
2023/03/14 01:45:03;;;;;;;9.50;8.60;;;18.50;50.30;;;;;;4881199;29;20684;-81
2023/03/14 01:47:31;;;;;;;9.07;8.23;;;18.50;50.40;;;;;;4881936;29;20225;-81
2023/03/14 01:50:00;;;;;;;8.73;7.93;;;18.50;50.40;;;;;;4882675;29;20205;-81
2023/03/14 01:52:31;;;;;;;8.85;7.97;;;18.50;50.40;;;;;;4881700;29;20221;-81
2023/03/14 01:55:00;;;;;;;8.88;7.97;;;18.40;50.40;;;;;;4881893;29;20229;-81
2023/03/14 01:57:29;;;;;;;8.73;7.82;;;18.40;50.40;;;;;;4881781;29;20221;-81
2023/03/14 01:59:58;;;;;;;9.38;8.38;;;18.40;50.40;;;;;;4960647;23;20227;-80
2023/03/14 02:02:26;;;;;;;8.13;7.38;;;18.40;50.40;;;;;;4972086;28;20250;-80
2023/03/14 02:04:55;;;;;;;8.75;7.90;;;18.40;50.40;;;;;;4972081;28;20209;-80
2023/03/14 02:07:29;;;;;;;8.35;7.55;;;18.40;50.50;;;;;;4972461;28;20242;-80
2023/03/14 02:10:07;;;;;;;8.07;7.38;;;18.40;50.40;;;;;;4956083;29;20211;-80
2023/03/14 02:12:35;;;;;;;8.90;8.10;;;18.30;50.30;;;;;;4956659;28;20223;-80
2023/03/14 02:15:13;;;;;;;9.07;8.18;;;18.30;50.40;;;;;;4972712;28;20203;-80
2023/03/14 02:18:03;;;;;;;8.38;7.57;;;18.30;50.40;;;;;;4956201;29;20206;-80
2023/03/14 02:20:45;;;;;;;7.72;7.03;;;18.30;50.40;;;;;;4956896;29;20556;-80
2023/03/14 02:23:16;;;;;;;8.20;7.40;;;18.30;50.50;;;;;;4955643;29;20209;-80
2023/03/14 02:25:45;;;;;;;7.90;7.10;;;18.30;50.60;;;;;;4955686;28;20226;-80
2023/03/14 02:28:13;;;;;;;8.07;7.30;;;18.30;50.50;;;;;;4955597;29;20195;-80
2023/03/14 02:30:42;;;;;;;8.15;7.35;;;18.30;50.50;;;;;;4955714;29;20250;-80
2023/03/14 02:33:10;;;;;;;7.60;6.90;;;18.30;50.60;;;;;;4955716;28;20598;-80
2023/03/14 02:35:40;;;;;;;8.30;7.50;;;18.30;50.60;;;;;;4955450;29;20222;-80
2023/03/14 02:38:11;;;;;;;8.15;7.35;;;18.20;50.50;;;;;;4972376;28;20190;-80
2023/03/14 02:40:41;;;;;;;7.72;7.03;;;18.20;50.50;;;;;;4956307;29;20191;-80
2023/03/14 02:43:09;;;;;;;8.15;7.35;;;18.30;50.60;;;;;;4939666;29;20562;-80
2023/03/14 02:45:42;;;;;;;8.18;7.38;;;18.20;50.50;;;;;;4955654;28;20274;-80
2023/03/14 02:48:12;;;;;;;7.30;6.47;;;18.20;50.50;;;;;;4955457;29;20685;-80
2023/03/14 02:50:40;;;;;;;7.50;6.78;;;18.20;50.50;;;;;;4956708;28;20198;-80
2023/03/14 02:53:07;;;;;;;7.43;6.72;;;18.20;50.50;;;;;;4955415;29;20225;-81
2023/03/14 02:55:34;;;;;;;7.47;6.78;;;18.20;50.50;;;;;;4955453;29;20621;-81
2023/03/14 02:58:08;;;;;;;7.18;6.47;;;18.20;50.50;;;;;;4955317;29;20193;-81
2023/03/14 03:00:35;;;;;;;6.75;6.15;;;18.10;50.50;;;;;;4955454;28;20282;-80
2023/03/14 03:03:06;;;;;;;7.13;6.50;;;18.20;50.50;;;;;;4955470;29;20222;-81
2023/03/14 03:05:33;;;;;;;6.80;6.10;;;18.10;50.50;;;;;;4955296;29;20218;-81
2023/03/14 03:08:01;;;;;;;7.03;6.43;;;18.20;50.50;;;;;;4955469;29;20291;-82
2023/03/14 03:10:28;;;;;;;7.40;6.70;;;18.10;50.50;;;;;;4956134;28;20198;-81
2023/03/14 03:12:55;;;;;;;7.25;6.63;;;18.10;50.50;;;;;;4955581;29;20226;-81
2023/03/14 03:15:25;;;;;;;6.55;5.95;;;18.10;50.50;;;;;;4956264;29;20202;-81
2023/03/14 03:17:53;;;;;;;7.63;6.93;;;18.10;50.50;;;;;;4955934;28;20209;-82
2023/03/14 03:20:22;;;;;;;6.25;5.65;;;18.10;50.50;;;;;;4955903;29;20559;-81
2023/03/14 03:22:50;;;;;;;7.10;6.43;;;18.10;50.50;;;;;;4940169;29;20206;-81
2023/03/14 03:25:17;;;;;;;6.72;6.13;;;18.10;50.50;;;;;;4972566;28;20230;-81
2023/03/14 03:27:46;;;;;;;6.60;6.00;;;18.10;50.40;;;;;;4957264;28;20249;-81
2023/03/14 03:30:17;;;;;;;6.43;5.82;;;18.10;50.50;;;;;;4955894;29;20195;-81
2023/03/14 03:32:44;;;;;;;6.38;5.78;;;18.10;50.50;;;;;;4955303;29;20222;-81
2023/03/14 03:35:12;;;;;;;6.57;5.97;;;18.10;50.50;;;;;;4955869;29;20202;-81
2023/03/14 03:37:41;;;;;;;6.50;5.90;;;18.00;50.40;;;;;;4956166;29;20198;-81
2023/03/14 03:40:09;;;;;;;6.20;5.60;;;18.00;50.40;;;;;;4955343;28;20680;-81
2023/03/14 03:42:37;;;;;;;6.38;5.78;;;18.00;50.40;;;;;;4955968;28;20198;-81
2023/03/14 03:45:07;;;;;;;6.30;5.70;;;18.00;50.40;;;;;;4955465;28;20195;-81
2023/03/14 03:47:38;;;;;;;6.60;5.85;;;18.00;50.40;;;;;;4955462;29;20290;-81
2023/03/14 03:50:06;;;;;;;6.07;5.50;;;18.00;50.40;;;;;;4955276;28;20670;-81
2023/03/14 03:52:34;;;;;;;5.88;5.35;;;18.00;50.40;;;;;;4955058;29;20265;-81
2023/03/14 03:55:02;;;;;;;6.45;5.85;;;18.00;50.40;;;;;;4954915;29;20194;-81
2023/03/14 03:57:30;;;;;;;6.45;5.38;;;18.00;51.00;;;;;;4954665;29;20289;-81
2023/03/14 03:59:57;;;;;;;6.30;5.70;;;18.00;50.30;;;;;;4955217;29;20203;-80
2023/03/14 04:02:25;;;;;;;5.63;5.13;;;17.90;50.20;;;;;;4964629;28;20694;-80
2023/03/14 04:04:52;;;;;;;5.63;5.07;;;18.00;50.30;;;;;;4970117;28;20199;-81
2023/03/14 04:07:19;;;;;;;5.50;5.00;;;17.90;50.10;;;;;;4976887;29;20230;-81
2023/03/14 04:09:47;;;;;;;6.03;5.47;;;17.90;50.20;;;;;;4943453;29;20696;-81
2023/03/14 04:12:38;;;;;;;5.75;5.25;;;17.90;50.10;;;;;;4958145;29;20252;-81
2023/03/14 04:15:10;;;;;;;6.05;5.50;;;17.90;50.20;;;;;;4959301;29;20209;-81
2023/03/14 04:17:41;;;;;;;5.60;5.10;;;17.90;50.20;;;;;;4958251;29;20209;-81
2023/03/14 04:20:10;;;;;;;5.32;4.93;;;17.90;50.20;;;;;;4942468;29;20206;-81
2023/03/14 04:22:38;;;;;;;5.70;5.20;;;17.90;50.20;;;;;;4957877;28;20566;-81
2023/03/14 04:25:08;;;;;;;5.57;5.07;;;17.90;50.30;;;;;;4958393;28;20274;-81
2023/03/14 04:27:42;;;;;;;5.18;4.57;;;17.90;50.50;;;;;;4958349;29;20672;-81
2023/03/14 04:30:18;;;;;;;5.90;5.30;;;17.90;50.50;;;;;;4959949;29;20242;-81
2023/03/14 04:33:07;;;;;;;5.15;4.65;;;17.90;50.40;;;;;;4958951;29;20229;-81
2023/03/14 04:35:37;;;;;;;6.63;6.05;;;18.00;50.40;;;;;;4959549;29;20254;-81
2023/03/14 04:38:09;;;;;;;5.60;5.10;;;18.00;50.40;;;;;;4959064;29;20221;-81
2023/03/14 04:40:37;;;;;;;5.78;4.90;;;18.00;50.10;;;;;;4958066;28;20289;-81
2023/03/14 04:43:09;;;;;;;5.68;5.13;;;18.10;50.20;;;;;;4957804;28;20195;-81
2023/03/14 04:45:37;;;;;;;6.45;5.25;;;18.10;50.00;;;;;;4958010;29;20246;-81
2023/03/14 04:48:07;;;;;;;5.57;5.07;;;18.10;49.90;;;;;;4958503;28;20254;-81
2023/03/14 04:50:34;;;;;;;5.45;4.95;;;18.10;49.80;;;;;;4958269;29;20726;-82
2023/03/14 04:53:01;;;;;;;5.40;4.90;;;18.20;49.80;;;;;;4957677;28;20343;-81
2023/03/14 04:55:29;;;;;;;5.28;4.78;;;18.10;49.70;;;;;;4957913;28;20226;-81
2023/03/14 04:57:57;;;;;;;5.18;4.68;;;18.20;49.60;;;;;;4958203;28;20684;-81
2023/03/14 05:00:26;;;;;;;4.90;4.40;;;18.20;49.60;;;;;;4944382;29;20218;-81
2023/03/14 05:02:56;;;;;;;5.43;4.93;;;18.20;49.30;;;;;;4963771;29;20184;-81
2023/03/14 05:05:32;;;;;;;4.88;4.47;;;18.20;49.40;;;;;;4963553;29;20250;-81
2023/03/14 05:08:12;;;;;;;5.00;4.55;;;18.10;49.20;;;;;;4963566;29;20674;-81
2023/03/14 05:10:53;;;;;;;5.25;4.75;;;18.10;49.30;;;;;;4961644;29;20298;-81
2023/03/14 05:13:36;;;;;;;5.20;4.70;;;18.10;49.30;;;;;;4961373;29;20294;-81
2023/03/14 05:16:20;;;;;;;5.43;4.60;;;18.10;49.30;;;;;;4962786;28;20285;-81
2023/03/14 05:18:56;;;;;;;5.72;4.40;;;18.00;49.20;;;;;;4961348;29;20218;-81
2023/03/14 05:21:42;;;;;;;4.65;4.10;;;18.10;49.30;;;;;;4962083;29;20563;-81
2023/03/14 05:24:29;;;;;;;4.47;4.07;;;18.00;49.30;;;;;;4962100;29;20570;-81
2023/03/14 05:26:59;;;;;;;4.88;4.38;;;18.00;49.50;;;;;;4962407;29;20238;-80
2023/03/14 05:29:45;;;;;;;5.45;4.95;;;18.00;49.40;;;;;;4960933;29;20661;-80
2023/03/14 05:32:29;;;;;;;5.13;4.40;;;18.10;49.60;;;;;;4957083;29;20570;-81
2023/03/14 05:35:09;;;;;;;5.60;4.90;;;18.00;49.50;;;;;;4957079;29;20198;-80
2023/03/14 05:37:55;;;;;;;5.25;4.75;;;18.00;49.50;;;;;;4963624;28;20644;-80
2023/03/14 05:40:51;;;;;;;4.32;3.92;;;18.00;49.60;;;;;;4958523;29;20198;-80
2023/03/14 05:43:36;;;;;;;4.60;4.20;;;18.00;49.30;;;;;;4957759;29;20212;-80
2023/03/14 05:46:24;;;;;;;5.15;4.22;;;18.00;49.40;;;;;;4943823;29;20226;-80
2023/03/14 05:49:11;;;;;;;4.57;4.18;;;18.00;49.80;;;;;;4944848;29;20330;-80
2023/03/14 05:51:52;;;;;;;4.78;4.32;;;18.00;50.00;;;;;;4957368;29;20570;-80
2023/03/14 05:54:55;;;;;;;4.15;3.75;;;18.10;50.30;;;;;;4951655;29;20226;-80
2023/03/14 05:57:25;;;;;;;4.57;3.75;;;18.00;50.30;;;;;;4959689;28;20214;-81
2023/03/14 06:00:13;;;;;;;4.20;3.80;;;18.10;50.20;;;;;;4963177;28;20273;-81
2023/03/14 06:02:45;;;;;;;3.95;3.55;;;18.10;50.30;;;;;;4963041;28;20229;-81
2023/03/14 06:05:22;;;;;;;4.53;4.13;;;18.10;50.30;;;;;;4961255;29;20217;-80
2023/03/14 06:07:54;;;;;;;4.13;3.45;;;18.10;50.30;;;;;;4945680;29;20195;-80
2023/03/14 06:10:22;;;;;;;4.25;3.67;;;18.10;50.20;;;;;;4960828;29;20199;-81
2023/03/14 06:12:49;;;;;;;4.53;4.13;;;18.10;50.30;;;;;;4960605;28;20261;-81
2023/03/14 06:15:16;;;;;;;4.93;4.15;;;18.10;50.00;;;;;;4959666;29;20653;-81
2023/03/14 06:17:46;;;;;;;4.30;3.88;;;18.20;50.30;;;;;;4959717;29;20203;-81
2023/03/14 06:20:14;;;;;;;4.45;3.80;;;18.10;50.10;;;;;;4959522;28;20657;-81
2023/03/14 06:22:43;;;;;;;5.57;3.53;;;18.20;50.10;;;;;;4965321;28;20203;-81
2023/03/14 06:25:12;;;;;;;4.03;3.60;;;18.20;50.00;;;;;;4965478;29;20202;-81
2023/03/14 06:27:40;;;;;;;4.88;3.47;;;18.10;49.80;;;;;;4962655;28;20233;-81
2023/03/14 06:30:09;;;;;;;4.28;3.50;;;18.20;50.00;;;;;;4944976;29;20213;-81
2023/03/14 06:32:37;;;;;;;4.47;3.65;;;18.20;49.70;;;;;;4959342;28;20202;-81
2023/03/14 06:35:09;;;;;;;4.57;3.95;;;18.20;49.70;;;;;;4958864;28;20225;-81
2023/03/14 06:37:40;;;;;;;3.85;3.55;;;18.20;49.90;;;;;;4957414;29;20199;-81
2023/03/14 06:40:12;;;;;;;4.30;3.90;;;18.30;49.80;;;;;;4956629;29;20209;-81
2023/03/14 06:42:50;;;;;;;4.45;3.42;;;18.20;49.60;;;;;;4956250;29;20246;-79
2023/03/14 06:45:19;;;;;;;4.15;3.22;;;18.20;49.50;;;;;;4940650;29;20256;-79
2023/03/14 06:47:46;;;;;;;4.05;3.50;;;18.30;49.60;;;;;;4956776;29;20241;-79
2023/03/14 06:50:15;;;;;;;4.57;3.75;;;18.30;49.40;;;;;;4956759;29;20262;-79
2023/03/14 06:52:47;;;;;;;4.47;3.30;;;18.30;49.40;;;;;;4956357;29;20285;-79
2023/03/14 06:55:19;;;;;;;3.47;3.17;;;18.30;49.30;;;;;;4956176;29;20656;-79
2023/03/14 06:57:47;;;;;;;4.38;3.42;;;18.30;49.30;;;;;;4956310;29;20230;-79
2023/03/14 07:00:15;;;;;;;3.40;3.10;;;18.30;49.20;;;;;;4956353;28;20213;-79
2023/03/14 07:02:42;;;;;;;3.47;3.17;;;18.30;49.20;;;;;;4957072;28;20194;-79
2023/03/14 07:05:19;;;;;;;3.72;3.33;;;18.30;49.20;;;;;;4972083;28;20191;-79
2023/03/14 07:07:46;;;;;;;4.22;3.22;;;18.40;49.00;;;;;;4940045;29;20199;-79
2023/03/14 07:10:13;;;;;;;3.55;3.25;;;18.40;49.00;;;;;;4956774;29;20224;-79
2023/03/14 07:12:43;;;;;;;3.25;2.92;;;18.50;48.80;;;;;;4955537;29;20692;-79
2023/03/14 07:15:11;;;;;;;3.78;3.47;;;18.60;48.80;;;;;;4971430;28;20218;-79
2023/03/14 07:17:38;;;;;;;3.78;3.47;;;18.60;48.70;;;;;;4955884;29;20198;-79
2023/03/14 07:20:07;;;;;;;3.58;3.15;;;18.80;48.60;;;;;;4955192;29;20205;-79
2023/03/14 07:22:35;;;;;;;3.08;2.78;;;18.80;48.50;;;;;;4955950;29;20290;-79
2023/03/14 07:25:01;;;;;;;3.17;2.88;;;18.90;48.40;;;;;;4956322;28;20203;-79
2023/03/14 07:27:28;;;;;;;3.60;3.00;;;18.90;48.20;;;;;;4955418;28;20252;-79
2023/03/14 07:29:57;;;;;;;3.20;2.95;;;19.00;48.20;;;;;;4955138;29;20210;-79
2023/03/14 07:32:24;;;;;;;3.15;2.85;;;19.10;48.10;;;;;;4955452;28;20199;-79
2023/03/14 07:34:51;;;;;;;3.25;2.80;;;19.20;47.90;;;;;;4955243;28;20653;-79
2023/03/14 07:37:18;;;;;;;3.05;2.60;;;19.30;47.90;;;;;;4955187;28;20223;-79
2023/03/14 07:39:45;;;;;;;2.88;2.63;;;19.30;47.80;;;;;;4958688;28;20219;-79
2023/03/14 07:42:19;;;;;;;3.60;2.80;;;19.40;47.70;;;;;;4959117;29;20219;-79
2023/03/14 07:44:57;;;;;;;3.78;2.72;;;19.50;47.40;;;;;;4959078;29;20661;-79
2023/03/14 07:47:24;;;;;;;2.63;2.42;;;19.70;47.30;;;;;;4959194;29;20286;-78
2023/03/14 07:49:51;;;;;;;2.80;2.50;;;19.80;47.10;;;;;;4958853;29;20207;-78
2023/03/14 07:52:20;;;;;;;2.40;2.20;;;19.90;46.90;;;;;;4959322;29;20230;-78
2023/03/14 07:54:47;;;;;;;2.78;2.58;;;20.10;46.50;;;;;;4958863;28;20234;-78
2023/03/14 07:57:14;;;;;;;3.05;2.75;;;20.30;46.20;;;;;;4958632;29;20360;-78
2023/03/14 07:59:42;;;;;;;3.30;3.00;;;20.50;46.00;;;;;;4989717;23;20751;-84
2023/03/14 08:02:11;;;;;;;3.10;2.80;;;20.70;45.40;;;;;;4960365;29;20206;-82
2023/03/14 08:04:39;;;;;;;3.20;2.90;;;20.90;45.00;;;;;;4959551;29;20191;-82
2023/03/14 08:07:06;;;;;;;2.92;2.72;;;21.00;44.80;;;;;;4972203;28;20227;-82
2023/03/14 08:09:33;;;;;;;3.28;2.90;;;21.10;44.70;;;;;;4959396;29;20672;-82
2023/03/14 08:12:00;;;;;;;3.30;3.00;;;21.20;44.30;;;;;;4960056;29;20684;-82
2023/03/14 08:14:28;;;;;;;3.25;2.95;;;21.30;44.10;;;;;;4962157;29;20307;-82
2023/03/14 08:16:56;;;;;;;3.05;2.85;;;21.40;43.80;;;;;;4982118;28;20278;-82
2023/03/14 08:19:25;;;;;;;3.10;2.83;;;21.60;43.90;;;;;;4981954;28;20171;-82
2023/03/14 08:21:52;;;;;;;2.95;2.75;;;21.60;43.70;;;;;;4982789;28;20194;-82
2023/03/14 08:24:20;;;;;;;3.70;2.78;;;21.60;43.60;;;;;;4998141;28;20243;-82
2023/03/14 08:26:46;;;;;;;3.15;2.85;;;21.60;43.60;;;;;;4981892;28;20199;-82
2023/03/14 08:29:14;;;;;;;3.05;2.85;;;21.50;43.70;;;;;;4981822;28;20179;-82
2023/03/14 08:31:41;;;;;;;3.00;2.70;;;21.40;43.70;;;;;;4981860;28;20195;-82
2023/03/14 08:34:08;;;;;;;3.08;2.88;;;21.40;43.90;;;;;;4997517;28;20306;-82
2023/03/14 08:36:36;;;;;;;2.88;2.67;;;21.30;44.00;;;;;;4990086;28;20545;-81
2023/03/14 08:39:06;;;;;;;3.20;2.90;;;21.30;44.10;;;;;;4979015;28;20198;-81
2023/03/14 08:41:39;;;;;;;3.50;3.03;;;21.20;44.00;;;;;;4979029;28;20293;-81
2023/03/14 08:44:07;;;;;;;3.00;2.75;;;21.30;44.00;;;;;;4979563;28;20206;-81
2023/03/14 08:46:34;;;;;;;3.03;2.72;;;21.40;43.80;;;;;;4961056;29;20257;-81
2023/03/14 08:49:02;;;;;;;3.30;3.00;;;21.60;43.40;;;;;;4960606;28;20614;-81
2023/03/14 08:51:29;;;;;;;2.60;2.40;;;21.80;43.00;;;;;;4959339;28;20209;-81
2023/03/14 08:53:57;;;;;;;2.63;2.42;;;22.00;42.90;;;;;;4975377;28;20258;-81
2023/03/14 08:56:24;;;;;;;2.90;2.70;;;22.20;42.60;;;;;;4977328;28;20222;-81
2023/03/14 08:58:51;;;;;;;2.97;2.67;;;22.30;42.40;;;;;;4977848;28;20215;-81
2023/03/14 09:01:19;;;;;;;2.75;2.55;;;22.40;42.10;;;;;;4962498;29;20257;-81
2023/03/14 09:03:47;;;;;;;2.88;2.65;;;22.50;42.00;;;;;;4961671;29;20194;-81
2023/03/14 09:06:17;;;;;;;2.80;2.60;;;22.60;41.80;;;;;;4961817;29;20566;-81
2023/03/14 09:08:45;;;;;;;2.72;2.53;;;22.60;41.60;;;;;;4961968;28;20203;-81
2023/03/14 09:11:13;;;;;;;2.60;2.40;;;22.70;41.40;;;;;;4962336;29;20206;-81
2023/03/14 09:13:40;;;;;;;3.00;2.80;;;22.80;41.40;;;;;;4961946;29;20225;-81
2023/03/14 09:16:09;;;;;;;2.83;2.63;;;22.80;41.40;;;;;;4982108;28;20227;-81
2023/03/14 09:18:36;;;;;;;2.85;2.60;;;22.70;41.40;;;;;;4954999;29;20294;-81
2023/03/14 09:21:03;;;;;;;2.80;2.60;;;22.70;41.60;;;;;;4985565;28;20261;-81
2023/03/14 09:23:30;;;;;;;2.50;2.30;;;22.60;41.70;;;;;;4968812;29;20210;-81
2023/03/14 09:25:57;;;;;;;2.50;2.30;;;22.60;41.80;;;;;;4963024;28;20697;-82
2023/03/14 09:28:25;;;;;;;2.67;2.47;;;22.60;41.70;;;;;;4978651;28;20209;-82
2023/03/14 09:30:53;;;;;;;2.55;2.35;;;22.60;41.80;;;;;;4979091;28;20198;-81
2023/03/14 09:33:20;;;;;;;2.72;2.53;;;22.60;41.60;;;;;;4961698;28;20217;-81
2023/03/14 09:35:47;;;;;;;3.17;2.63;;;22.70;41.60;;;;;;4946098;29;20242;-82
2023/03/14 09:38:15;;;;;;;2.60;2.40;;;22.70;41.40;;;;;;4977728;28;20217;-82
2023/03/14 09:40:42;;;;;;;2.40;2.20;;;22.80;41.40;;;;;;4960879;29;20238;-82
2023/03/14 09:43:10;;;;;;;2.92;2.60;;;22.80;41.30;;;;;;4958531;29;20198;-82
2023/03/14 09:45:40;;;;;;;2.33;2.15;;;22.80;41.20;;;;;;4956794;29;20712;-83
2023/03/14 09:48:07;;;;;;;2.47;2.28;;;22.80;41.30;;;;;;4974859;28;20249;-82
2023/03/14 09:50:38;;;;;;;2.50;2.30;;;22.80;41.40;;;;;;4960311;29;20246;-81
2023/03/14 09:53:07;;;;;;;2.50;2.30;;;22.80;41.40;;;;;;4960278;28;20229;-81
2023/03/14 09:55:35;;;;;;;2.47;2.28;;;22.70;41.50;;;;;;4958576;28;20367;-81
2023/03/14 09:58:04;;;;;;;2.50;2.30;;;22.70;41.50;;;;;;4973367;28;20227;-81
2023/03/14 10:00:32;;;;;;;2.20;2.00;;;22.50;41.50;;;;;;4956660;28;20344;-81
2023/03/14 10:03:06;;;;;;;2.20;1.90;;;22.50;41.70;;;;;;4973313;28;20202;-83
2023/03/14 10:05:34;;;;;;;2.60;2.40;;;22.40;41.70;;;;;;4972492;28;20545;-83
2023/03/14 10:08:01;;;;;;;2.17;1.98;;;22.40;41.90;;;;;;4972507;28;20573;-83
2023/03/14 10:10:28;;;;;;;2.20;2.00;;;22.30;42.00;;;;;;4956259;28;20198;-83
2023/03/14 10:12:57;;;;;;;2.05;1.95;;;22.20;42.00;;;;;;4956466;29;20234;-83
2023/03/14 10:15:26;;;;;;;2.40;2.20;;;22.30;42.00;;;;;;4955640;29;20277;-84
2023/03/14 10:17:54;;;;;;;2.53;2.15;;;22.30;42.00;;;;;;4955891;29;20298;-84
2023/03/14 10:20:33;;;;;;;2.35;2.15;;;22.40;41.80;;;;;;4972204;28;20253;-84
2023/03/14 10:23:01;;;;;;;2.35;2.15;;;22.40;41.70;;;;;;4956581;29;20217;-82
2023/03/14 10:25:30;;;;;;;2.10;2.00;;;22.50;41.40;;;;;;4956977;28;20657;-82
2023/03/14 10:27:57;;;;;;;2.22;2.10;;;22.60;41.20;;;;;;4956749;28;20210;-82
2023/03/14 10:30:30;;;;;;;2.10;2.00;;;22.70;41.20;;;;;;4956333;29;20570;-82
2023/03/14 10:32:57;;;;;;;2.10;2.00;;;22.70;41.10;;;;;;4956560;29;20203;-82
2023/03/14 10:35:25;;;;;;;2.25;2.10;;;22.70;41.10;;;;;;4973249;28;20222;-82
2023/03/14 10:37:55;;;;;;;2.08;1.98;;;22.70;41.20;;;;;;4959577;29;20626;-82
2023/03/14 10:40:26;;;;;;;2.00;1.90;;;22.70;41.40;;;;;;4957728;29;20226;-82
2023/03/14 10:42:55;;;;;;;2.60;2.40;;;22.60;41.40;;;;;;4973007;28;20214;-82
2023/03/14 10:45:28;;;;;;;2.00;1.90;;;22.50;41.60;;;;;;4984803;28;20242;-82
2023/03/14 10:47:56;;;;;;;2.20;2.00;;;22.50;41.70;;;;;;4976947;29;20208;-82
2023/03/14 10:50:24;;;;;;;2.38;2.10;;;22.40;41.80;;;;;;4993192;28;20195;-82
2023/03/14 10:52:54;;;;;;;2.10;2.00;;;22.30;41.90;;;;;;4988927;28;20191;-82
2023/03/14 10:55:21;;;;;;;2.05;1.88;;;22.30;41.90;;;;;;4974392;28;20215;-82
2023/03/14 10:57:48;;;;;;;1.90;1.80;;;22.30;41.90;;;;;;4957638;29;20225;-82
2023/03/14 11:00:18;;;;;;;2.00;1.90;;;22.20;42.00;;;;;;4974913;28;20217;-82
2023/03/14 11:03:02;;;;;;;1.67;1.58;;;22.20;42.10;;;;;;4962263;29;20198;-82
2023/03/14 11:05:31;;;;;;;2.15;1.88;;;22.20;42.30;;;;;;4961219;29;20668;-82
2023/03/14 11:08:02;;;;;;;1.90;1.80;;;22.00;42.10;;;;;;4960177;29;20198;-82
2023/03/14 11:10:32;;;;;;;1.80;1.70;;;22.00;42.20;;;;;;4960233;29;20289;-82
2023/03/14 11:13:06;;;;;;;1.90;1.80;;;22.00;42.30;;;;;;4960898;28;20213;-81
2023/03/14 11:15:35;;;;;;;1.70;1.60;;;21.90;42.30;;;;;;4980172;28;20241;-81
2023/03/14 11:18:32;;;;;;;1.95;1.85;;;22.00;42.40;;;;;;4963695;29;20206;-81
2023/03/14 11:21:02;;;;;;;1.90;1.80;;;21.90;42.40;;;;;;4961222;28;20230;-81
2023/03/14 11:23:33;;;;;;;1.90;1.80;;;21.90;42.50;;;;;;4979869;28;20210;-81
2023/03/14 11:26:02;;;;;;;1.60;1.50;;;21.80;42.50;;;;;;4963219;29;20226;-81
2023/03/14 11:28:34;;;;;;;1.80;1.70;;;21.80;42.60;;;;;;4963975;29;20285;-82
2023/03/14 11:31:04;;;;;;;1.85;1.75;;;21.70;42.60;;;;;;4963377;28;20191;-82
2023/03/14 11:33:35;;;;;;;1.80;1.70;;;21.70;42.60;;;;;;4976489;28;20250;-82
2023/03/14 11:36:05;;;;;;;2.03;1.88;;;21.60;42.60;;;;;;4943498;29;20681;-82
2023/03/14 11:38:38;;;;;;;1.77;1.67;;;21.60;42.70;;;;;;4959994;29;20564;-82
2023/03/14 11:41:05;;;;;;;1.55;1.45;;;21.60;42.80;;;;;;4959505;28;20203;-82
2023/03/14 11:43:37;;;;;;;1.75;1.65;;;21.60;42.70;;;;;;4959492;28;20210;-82
2023/03/14 11:46:06;;;;;;;1.67;1.58;;;21.60;42.80;;;;;;4975615;28;20254;-82
2023/03/14 11:48:38;;;;;;;1.70;1.60;;;21.60;42.80;;;;;;4976388;28;20209;-82
2023/03/14 11:51:08;;;;;;;1.63;1.52;;;21.60;42.70;;;;;;4959732;29;20229;-82
2023/03/14 11:53:44;;;;;;;1.60;1.50;;;21.60;42.70;;;;;;4959255;28;20557;-82
2023/03/14 11:56:13;;;;;;;1.83;1.73;;;21.60;42.60;;;;;;4975314;28;20222;-82
2023/03/14 11:58:40;;;;;;;1.58;1.48;;;21.60;42.60;;;;;;4975707;28;20212;-82
2023/03/14 12:01:10;;;;;;;1.55;1.45;;;21.60;42.60;;;;;;4975532;28;20592;-82
2023/03/14 12:03:40;;;;;;;1.67;1.58;;;21.60;42.70;;;;;;4958802;29;20203;-82
2023/03/14 12:06:13;;;;;;;1.80;1.70;;;21.60;42.80;;;;;;4979572;28;20214;-82
2023/03/14 12:08:47;;;;;;;1.58;1.48;;;21.60;42.80;;;;;;4967610;29;20195;-82
2023/03/14 12:11:23;;;;;;;1.63;1.52;;;21.60;42.80;;;;;;4983203;28;20203;-82
2023/03/14 12:13:53;;;;;;;1.70;1.60;;;21.60;42.90;;;;;;4964440;29;20227;-84
2023/03/14 12:16:37;;;;;;;1.45;1.35;;;21.60;42.90;;;;;;4964247;29;20293;-84
2023/03/14 12:19:27;;;;;;;1.60;1.50;;;21.60;42.90;;;;;;4963233;29;20203;-84
2023/03/14 12:21:57;;;;;;;1.50;1.40;;;21.50;42.90;;;;;;4960774;29;20206;-84
2023/03/14 12:24:26;;;;;;;1.70;1.60;;;21.50;43.00;;;;;;4960709;28;20593;-84
2023/03/14 12:26:55;;;;;;;1.42;1.33;;;21.50;43.00;;;;;;4975236;28;20226;-84
2023/03/14 12:29:22;;;;;;;1.60;1.50;;;21.50;43.20;;;;;;4975435;28;20638;-82
2023/03/14 12:31:49;;;;;;;1.38;1.30;;;21.40;43.10;;;;;;4974679;28;20203;-82
2023/03/14 12:34:32;;;;;;;1.40;1.30;;;21.40;43.20;;;;;;4958401;29;20213;-82
2023/03/14 12:37:11;;;;;;;1.42;1.33;;;21.40;43.20;;;;;;4958360;28;20234;-82
2023/03/14 12:39:44;;;;;;;1.60;1.50;;;21.50;43.20;;;;;;4974450;28;20262;-82
2023/03/14 12:42:12;;;;;;;1.40;1.30;;;21.50;43.20;;;;;;4958133;29;20241;-82
2023/03/14 12:44:41;;;;;;;1.45;1.35;;;21.50;43.00;;;;;;4974229;28;20207;-82
2023/03/14 12:47:42;;;;;;;1.40;1.30;;;21.50;42.90;;;;;;4958450;28;20285;-82
2023/03/14 12:50:14;;;;;;;1.33;1.23;;;21.50;43.00;;;;;;4957951;29;20575;-82
2023/03/14 12:52:45;;;;;;;1.27;1.20;;;21.50;42.90;;;;;;4958241;28;20210;-82
2023/03/14 12:55:16;;;;;;;1.60;1.50;;;21.50;42.70;;;;;;4959109;28;20211;-82
2023/03/14 12:57:45;;;;;;;1.20;1.10;;;21.50;42.80;;;;;;4974004;28;20206;-82
2023/03/14 13:00:19;;;;;;;1.30;1.20;;;21.50;42.50;;;;;;4974379;28;20209;-82
2023/03/14 13:02:47;;;;;;;1.10;1.10;;;21.50;42.30;;;;;;4942541;29;20696;-82